createdAt,value
2022-09-12T00:00:00.000Z,7.16
2022-09-12T00:15:00.000Z,6.86
2022-09-12T00:30:00.000Z,7.08
2022-09-12T00:45:00.000Z,6.84
2022-09-12T01:00:00.000Z,6.82
2022-09-12T01:15:00.000Z,7.05
2022-09-12T01:30:00.000Z,7.07
2022-09-12T01:45:00.000Z,7.08
2022-09-12T02:15:00.000Z,6
2022-09-12T02:30:00.000Z,7
2022-09-12T02:45:00.000Z,8
2022-09-12T02:45:00.000Z,7.12
2022-09-12T03:00:00.000Z,7.12
2022-09-12T03:15:00.000Z,7.19
2022-09-12T03:30:00.000Z,7.41
2022-09-12T03:45:00.000Z,7.14
2022-09-12T04:00:00.000Z,7.21
2022-09-12T04:15:00.000Z,7.45
2022-09-12T04:30:00.000Z,7.36
2022-09-12T04:45:00.000Z,7.46
2022-09-12T05:00:00.000Z,7.74
2022-09-12T05:15:00.000Z,7.36
2022-09-12T05:30:00.000Z,7.6
2022-09-12T05:45:00.000Z,7.55
2022-09-12T06:00:00.000Z,7.02
2022-09-12T06:15:00.000Z,6.64
2022-09-12T06:30:00.000Z,6.81
2022-09-12T06:45:00.000Z,6.35
2022-09-12T07:00:00.000Z,5.91
2022-09-12T07:15:00.000Z,5.31
2022-09-12T07:30:00.000Z,4.78
2022-09-12T07:45:00.000Z,5.01
2022-09-12T08:00:00.000Z,4.45
2022-09-12T08:15:00.000Z,4.53
2022-09-12T08:30:00.000Z,4.76
2022-09-12T08:45:00.000Z,4.92
2022-09-12T09:00:00.000Z,4.99
2022-09-12T09:15:00.000Z,4.67
2022-09-12T09:30:00.000Z,4.52
2022-09-12T09:45:00.000Z,4.49
2022-09-12T10:00:00.000Z,4.49
2022-09-12T10:15:00.000Z,4.98
2022-09-12T10:30:00.000Z,6.14
2022-09-12T10:45:00.000Z,4.93
2022-09-12T11:00:00.000Z,7.87
2022-09-12T11:15:00.000Z,5.33
2022-09-12T11:30:00.000Z,7.24
2022-09-12T11:45:00.000Z,6.67
2022-09-12T12:00:00.000Z,6.04
2022-09-12T12:15:00.000Z,5.14
2022-09-12T12:30:00.000Z,6.67
2022-09-12T12:45:00.000Z,6.96
2022-09-12T13:00:00.000Z,5.76
2022-09-12T13:15:00.000Z,5.85
2022-09-12T13:30:00.000Z,6
2022-09-12T13:45:00.000Z,5.87
2022-09-12T14:00:00.000Z,5.42
2022-09-12T14:15:00.000Z,4.86
2022-09-12T14:30:00.000Z,5.86
2022-09-12T14:45:00.000Z,5.53
2022-09-12T15:00:00.000Z,5.39
2022-09-12T15:15:00.000Z,6.54
2022-09-12T15:30:00.000Z,5.96
2022-09-12T15:45:00.000Z,5.58
2022-09-12T16:00:00.000Z,6.94
2022-09-12T16:15:00.000Z,7.19
2022-09-12T16:30:00.000Z,7.05
2022-09-12T16:45:00.000Z,7.49
2022-09-12T17:00:00.000Z,7.74
2022-09-12T17:15:00.000Z,10.04
2022-09-12T17:30:00.000Z,11.22
2022-09-12T17:45:00.000Z,11.48
2022-09-12T18:00:00.000Z,9.18
2022-09-12T18:15:00.000Z,8.93
2022-09-12T18:30:00.000Z,10.32
2022-09-12T18:45:00.000Z,11.18
2022-09-12T19:00:00.000Z,11.94
2022-09-12T19:15:00.000Z,11.33
2022-09-12T19:30:00.000Z,11.16
2022-09-12T19:45:00.000Z,9.67
2022-09-12T20:00:00.000Z,10.31
2022-09-12T20:15:00.000Z,12.29
2022-09-12T20:30:00.000Z,10.21
2022-09-12T20:45:00.000Z,10.24
2022-09-12T21:00:00.000Z,10.18
2022-09-12T21:15:00.000Z,10.26
2022-09-12T21:30:00.000Z,10.58
2022-09-12T21:45:00.000Z,10.06
2022-09-12T22:00:00.000Z,10.41
2022-09-12T22:15:00.000Z,10.21
2022-09-12T22:30:00.000Z,10.59
2022-09-12T22:45:00.000Z,10.55
2022-09-12T23:00:00.000Z,10.8
2022-09-12T23:15:00.000Z,10.53
2022-09-12T23:30:00.000Z,10.52
2022-09-12T23:45:00.000Z,10.4
